Time;durP1;ratioP1;P1;durP2;ratioP2;P2;SDS_P1;SDS_P2;PMS_P1;PMS_P2;Temp;Humidity;BMP_temperature;BMP_pressure;BME280_temperature;BME280_humidity;BME280_pressure;Samples;Min_cycle;Max_cycle;Signal;HPM_P1;HPM_P2
2022/03/12 00:00:35;;;;;;;21.97;11.30;;;;;;;9.57;38.42;96412.97;5048171;28;20295;-82
2022/03/12 00:03:02;;;;;;;20.67;11.93;;;;;;;9.63;37.91;96422.88;5039505;28;20202;-82
2022/03/12 00:05:32;;;;;;;17.47;10.40;;;;;;;9.57;38.51;96417.53;5060226;28;20292;-82
2022/03/12 00:08:00;;;;;;;17.57;11.00;;;;;;;9.61;38.19;96437.63;5048555;28;20279;-83
2022/03/12 00:10:32;;;;;;;26.17;11.93;;;;;;;9.60;38.75;96444.88;5046934;28;20206;-82
2022/03/12 00:12:59;;;;;;;21.30;12.57;;;;;;;9.48;39.21;96443.94;5046497;28;20443;-83
2022/03/12 00:15:28;;;;;;;18.37;11.17;;;;;;;9.45;39.13;96422.81;5054211;28;20210;-82
2022/03/12 00:17:56;;;;;;;21.70;12.57;;;;;;;9.43;39.85;96447.31;5046673;28;20216;-81
2022/03/12 00:20:28;;;;;;;23.33;11.83;;;;;;;9.41;39.17;96440.50;5052270;28;20201;-81
2022/03/12 00:22:56;;;;;;;18.57;10.83;;;;;;;9.40;39.24;96442.38;5040070;28;20210;-82
2022/03/12 00:25:26;;;;;;;18.07;11.50;;;;;;;9.42;39.10;96423.28;5040351;28;20202;-81
2022/03/12 00:27:53;;;;;;;18.90;11.00;;;;;;;9.43;39.17;96441.94;5058256;28;20224;-82
2022/03/12 00:30:24;;;;;;;19.47;11.33;;;;;;;9.38;39.45;96443.63;5048039;28;20201;-82
2022/03/12 00:32:52;;;;;;;23.00;12.50;;;;;;;9.36;39.57;96434.94;5043244;28;20212;-84
2022/03/12 00:35:21;;;;;;;17.67;11.80;;;;;;;9.40;39.33;96446.94;5048108;28;20213;-82
2022/03/12 00:37:48;;;;;;;16.70;11.40;;;;;;;9.43;38.89;96451.88;5044954;28;20209;-81
2022/03/12 00:40:19;;;;;;;19.47;11.43;;;;;;;9.50;38.66;96452.66;5036594;28;20228;-82
2022/03/12 00:42:47;;;;;;;19.20;11.53;;;;;;;9.57;38.46;96464.19;5062232;28;20269;-81
2022/03/12 00:45:15;;;;;;;20.10;11.80;;;;;;;9.48;39.08;96471.72;5059987;28;20204;-81
2022/03/12 00:47:42;;;;;;;20.73;12.27;;;;;;;9.37;39.68;96444.66;5035130;28;20299;-83
2022/03/12 00:50:10;;;;;;;20.90;12.80;;;;;;;9.36;39.46;96454.63;5048594;28;20209;-82
2022/03/12 00:52:38;;;;;;;20.83;12.07;;;;;;;9.39;39.88;96456.06;5043691;28;20300;-82
2022/03/12 00:55:06;;;;;;;19.57;11.93;;;;;;;9.38;39.57;96459.78;5043874;28;20319;-81
2022/03/12 00:57:33;;;;;;;20.63;12.43;;;;;;;9.35;39.74;96438.69;5049019;28;20200;-82
2022/03/12 01:00:02;;;;;;;21.77;13.43;;;;;;;9.38;39.95;96452.53;5046239;28;20197;-82
2022/03/12 01:02:30;;;;;;;18.37;11.00;;;;;;;9.32;40.18;96450.72;5066415;28;20206;-82
2022/03/12 01:04:57;;;;;;;19.57;11.70;;;;;;;9.29;39.82;96455.72;5040405;28;20201;-83
2022/03/12 01:07:24;;;;;;;22.30;12.60;;;;;;;9.26;40.35;96445.41;5046980;28;20431;-82
2022/03/12 01:09:56;;;;;;;23.63;13.33;;;;;;;9.24;40.66;96452.88;5046011;28;20221;-82
2022/03/12 01:12:23;;;;;;;22.17;13.00;;;;;;;9.19;40.87;96450.00;5048203;28;20296;-82
2022/03/12 01:14:50;;;;;;;17.70;12.23;;;;;;;9.27;40.47;96463.22;5044208;28;20240;-82
2022/03/12 01:17:17;;;;;;;18.43;10.23;;;;;;;9.28;39.97;96445.97;5059708;28;20194;-82
2022/03/12 01:19:45;;;;;;;21.57;12.70;;;;;;;9.24;40.23;96452.88;5047182;28;20189;-82
2022/03/12 01:22:20;;;;;;;21.60;12.43;;;;;;;9.24;40.14;96425.91;5044576;28;20213;-82
2022/03/12 01:24:47;;;;;;;19.33;12.47;;;;;;;9.28;40.00;96427.13;5046428;28;20228;-81
2022/03/12 01:27:16;;;;;;;20.70;12.30;;;;;;;9.38;39.73;96449.00;5040300;28;20268;-82
2022/03/12 01:29:45;;;;;;;20.43;11.53;;;;;;;9.38;40.22;96438.22;5043938;28;20225;-82
2022/03/12 01:32:12;;;;;;;19.50;11.20;;;;;;;9.29;40.11;96443.06;5047534;28;20298;-82
2022/03/12 01:34:43;;;;;;;20.67;12.17;;;;;;;9.22;40.46;96439.59;5046289;28;20205;-82
2022/03/12 01:37:10;;;;;;;19.57;12.10;;;;;;;9.24;40.03;96440.22;5042283;28;20236;-84
2022/03/12 01:39:37;;;;;;;21.07;12.43;;;;;;;9.27;40.40;96428.97;5037581;28;20206;-81
2022/03/12 01:42:09;;;;;;;22.87;12.97;;;;;;;9.22;41.05;96445.00;5042381;28;20211;-81
2022/03/12 01:44:37;;;;;;;19.90;12.67;;;;;;;9.11;40.99;96438.44;5043685;28;20244;-82
2022/03/12 01:47:09;;;;;;;20.07;12.43;;;;;;;9.13;40.92;96440.09;5046143;28;20206;-81
2022/03/12 01:49:38;;;;;;;19.67;12.13;;;;;;;9.13;40.87;96437.41;5055539;28;20228;-82
2022/03/12 01:52:07;;;;;;;21.53;13.13;;;;;;;9.10;41.29;96425.22;5045237;28;20201;-82
2022/03/12 01:54:35;;;;;;;21.10;11.97;;;;;;;9.06;41.21;96424.81;5036089;28;20209;-81
2022/03/12 01:57:03;;;;;;;21.17;13.07;;;;;;;9.10;41.48;96412.53;5050617;28;20208;-82
2022/03/12 01:59:30;;;;;;;21.10;12.63;;;;;;;9.10;40.55;96398.28;5041625;28;20294;-82
2022/03/12 02:01:58;;;;;;;20.77;11.80;;;;;;;9.06;41.34;96408.66;5036820;28;20221;-82
2022/03/12 02:04:29;;;;;;;22.57;11.63;;;;;;;9.08;40.90;96385.03;5033017;28;20222;-83
2022/03/12 02:06:59;;;;;;;20.33;11.97;;;;;;;9.17;40.44;96406.31;5044010;28;20206;-82
2022/03/12 02:09:27;;;;;;;19.03;11.30;;;;;;;9.17;40.25;96387.44;5044897;28;20229;-83
2022/03/12 02:11:54;;;;;;;18.07;10.37;;;;;;;9.20;40.32;96392.38;5041440;28;20202;-83
2022/03/12 02:14:24;;;;;;;20.43;12.43;;;;;;;9.17;40.74;96392.84;5047120;28;20205;-82
2022/03/12 02:16:57;;;;;;;19.97;11.93;;;;;;;9.12;40.78;96393.47;5075168;28;20196;-81
2022/03/12 02:19:27;;;;;;;20.93;11.47;;;;;;;9.17;40.47;96392.84;5039563;28;20213;-82
2022/03/12 02:21:56;;;;;;;20.07;11.53;;;;;;;9.18;40.53;96389.09;5046268;28;20201;-82
2022/03/12 02:24:27;;;;;;;20.97;12.00;;;;;;;9.17;40.56;96396.34;5044469;28;20228;-82
2022/03/12 02:26:55;;;;;;;21.13;12.47;;;;;;;9.13;40.88;96394.31;5055536;28;20221;-81
2022/03/12 02:29:24;;;;;;;20.97;11.80;;;;;;;9.15;40.75;96395.75;5033729;28;20240;-81
2022/03/12 02:31:58;;;;;;;18.63;11.23;;;;;;;9.18;40.58;96397.19;5056671;28;20205;-82
2022/03/12 02:34:30;;;;;;;20.53;11.83;;;;;;;9.15;40.87;96400.28;5032497;28;20206;-82
2022/03/12 02:36:57;;;;;;;21.13;12.17;;;;;;;9.10;40.87;96395.59;5045016;28;20198;-83
2022/03/12 02:39:27;;;;;;;21.37;11.87;;;;;;;9.11;40.82;96368.41;5042667;28;20209;-81
2022/03/12 02:41:56;;;;;;;17.83;11.30;;;;;;;9.13;40.82;96383.53;5051634;28;20202;-82
2022/03/12 02:44:27;;;;;;;17.63;11.27;;;;;;;9.17;40.31;96373.97;5036553;28;20321;-81
2022/03/12 02:47:13;;;;;;;18.57;10.27;;;;;;;9.16;40.80;96359.69;5045371;28;20292;-82
2022/03/12 02:49:43;;;;;;;17.83;11.33;;;;;;;9.16;40.55;96370.44;5036433;28;20226;-83
2022/03/12 02:52:10;;;;;;;16.53;10.23;;;;;;;9.15;40.42;96363.41;5048377;28;20273;-81
2022/03/12 02:54:40;;;;;;;17.47;10.03;;;;;;;9.26;40.05;96376.16;5053753;28;20213;-82
2022/03/12 02:57:10;;;;;;;17.43;9.83;;;;;;;9.31;39.42;96383.56;5044280;28;20210;-82
2022/03/12 02:59:38;;;;;;;20.53;11.57;;;;;;;9.30;40.13;96371.97;5043217;28;20208;-81
2022/03/12 03:02:08;;;;;;;20.77;10.60;;;;;;;9.25;40.07;96376.38;5046333;28;20199;-80
2022/03/12 03:04:37;;;;;;;20.50;10.63;;;;;;;9.16;40.56;96389.31;5052927;28;20218;-82
2022/03/12 03:07:05;;;;;;;18.93;11.37;;;;;;;9.13;40.59;96359.28;5048929;28;20213;-81
2022/03/12 03:09:33;;;;;;;16.83;10.77;;;;;;;9.15;40.45;96370.66;5062763;28;20304;-81
2022/03/12 03:12:03;;;;;;;17.03;10.20;;;;;;;9.23;40.09;96379.28;5044458;28;20206;-81
2022/03/12 03:14:31;;;;;;;17.80;10.50;;;;;;;9.18;40.27;96365.69;5049070;28;20208;-82
2022/03/12 03:17:00;;;;;;;16.10;9.47;;;;;;;9.17;40.17;96399.03;5047544;28;20208;-82
2022/03/12 03:19:28;;;;;;;16.23;9.43;;;;;;;9.27;40.11;96379.69;5068465;28;20231;-82
2022/03/12 03:21:56;;;;;;;15.83;9.77;;;;;;;9.23;40.15;96381.16;5065651;28;20201;-82
2022/03/12 03:24:24;;;;;;;16.23;9.07;;;;;;;9.27;39.82;96380.50;5077510;28;20315;-83
2022/03/12 03:26:55;;;;;;;15.60;9.80;;;;;;;9.32;39.51;96396.00;5043543;28;20308;-81
2022/03/12 03:29:25;;;;;;;14.13;9.60;;;;;;;9.27;40.00;96382.38;5047391;28;20308;-82
2022/03/12 03:31:54;;;;;;;14.83;9.40;;;;;;;9.21;39.92;96388.63;5047991;28;20209;-81
2022/03/12 03:34:22;;;;;;;13.10;8.60;;;;;;;9.23;39.83;96382.00;5051315;28;20209;-81
2022/03/12 03:36:50;;;;;;;15.93;9.17;;;;;;;9.21;40.11;96378.69;5056566;28;20219;-81
2022/03/12 03:39:18;;;;;;;15.83;8.93;;;;;;;9.23;39.92;96386.56;5041794;28;20213;-82
2022/03/12 03:41:48;;;;;;;13.10;8.77;;;;;;;9.26;39.60;96386.94;5044363;28;20209;-82
2022/03/12 03:44:27;;;;;;;15.90;8.97;;;;;;;9.21;39.84;96372.47;5048747;28;20229;-82
2022/03/12 03:46:54;;;;;;;13.27;8.73;;;;;;;9.29;39.86;96375.72;5041916;28;20316;-81
2022/03/12 03:49:21;;;;;;;15.33;8.57;;;;;;;9.23;40.17;96402.72;5035598;28;20222;-82
2022/03/12 03:51:48;;;;;;;13.30;8.27;;;;;;;9.25;39.62;96387.16;5046481;28;20202;-82
2022/03/12 03:54:15;;;;;;;13.07;8.30;;;;;;;9.25;40.02;96389.84;5067966;28;20289;-81
2022/03/12 03:56:43;;;;;;;11.97;8.30;;;;;;;9.28;39.73;96411.78;5059240;28;20229;-84
2022/03/12 03:59:11;;;;;;;12.10;7.83;;;;;;;9.21;39.96;96405.63;5051047;28;20208;-80
2022/03/12 04:01:41;;;;;;;13.27;8.63;;;;;;;9.17;40.27;96411.69;5058904;28;20258;-82
2022/03/12 04:04:12;;;;;;;13.00;7.80;;;;;;;9.19;40.00;96390.72;5042298;28;20236;-82
2022/03/12 04:06:42;;;;;;;14.20;8.63;;;;;;;9.20;39.72;96381.59;5060897;28;20297;-81
2022/03/12 04:09:09;;;;;;;13.87;8.10;;;;;;;9.22;39.73;96406.44;5042654;28;20324;-83
2022/03/12 04:11:38;;;;;;;12.77;8.40;;;;;;;9.19;39.76;96396.94;5049622;28;20214;-82
2022/03/12 04:14:08;;;;;;;12.87;7.90;;;;;;;9.13;40.28;96391.59;5061716;28;20208;-82
2022/03/12 04:16:36;;;;;;;14.97;8.30;;;;;;;9.04;40.83;96381.09;5035936;28;20224;-81
2022/03/12 04:19:05;;;;;;;13.60;8.53;;;;;;;9.01;40.86;96402.28;5040912;28;20209;-81
2022/03/12 04:21:32;;;;;;;13.73;8.23;;;;;;;9.02;40.53;96404.72;5049489;28;20247;-82
2022/03/12 04:24:00;;;;;;;14.07;8.13;;;;;;;8.98;40.54;96376.59;5036530;28;20237;-81
2022/03/12 04:26:27;;;;;;;13.30;7.97;;;;;;;8.93;40.94;96411.44;5034830;28;20245;-84
2022/03/12 04:28:54;;;;;;;12.50;8.17;;;;;;;8.97;41.02;96409.97;5041825;28;20210;-81
2022/03/12 04:31:21;;;;;;;13.63;8.30;;;;;;;8.92;41.08;96388.25;5046614;28;20237;-81
2022/03/12 04:33:48;;;;;;;13.03;7.90;;;;;;;8.94;40.61;96383.47;5046603;28;20222;-81
2022/03/12 04:36:16;;;;;;;13.47;8.33;;;;;;;8.95;40.61;96392.38;5039907;28;20224;-82
2022/03/12 04:38:43;;;;;;;12.20;7.60;;;;;;;8.98;40.71;96391.94;5046750;28;20201;-83
2022/03/12 04:41:12;;;;;;;12.50;8.17;;;;;;;8.97;40.86;96392.97;5046955;28;20205;-82
2022/03/12 04:43:40;;;;;;;12.63;8.40;;;;;;;8.94;41.27;96396.94;5040959;28;20232;-82
2022/03/12 04:46:07;;;;;;;13.37;8.50;;;;;;;8.85;41.50;96382.06;5081829;28;20205;-82
2022/03/12 04:48:34;;;;;;;14.43;8.20;;;;;;;8.87;41.40;96379.16;5054008;28;20299;-82
2022/03/12 04:51:01;;;;;;;13.03;8.37;;;;;;;8.87;41.41;96387.25;5043059;28;20222;-81
2022/03/12 04:53:30;;;;;;;12.47;8.10;;;;;;;8.87;41.43;96380.00;5036755;28;20217;-83
2022/03/12 04:55:57;;;;;;;12.37;8.43;;;;;;;8.86;40.81;96367.56;5041007;28;20324;-83
2022/03/12 04:58:25;;;;;;;10.93;7.57;;;;;;;8.89;41.16;96369.00;5040339;28;20201;-81
2022/03/12 05:00:55;;;;;;;13.17;7.90;;;;;;;8.96;41.20;96385.94;5044114;28;20300;-82
2022/03/12 05:03:24;;;;;;;13.23;8.67;;;;;;;8.91;41.23;96375.84;5055704;28;20256;-80
2022/03/12 05:05:53;;;;;;;11.10;6.77;;;;;;;8.90;41.28;96384.97;5040899;28;20277;-82
2022/03/12 05:08:22;;;;;;;9.53;6.77;;;;;;;8.91;41.29;96383.91;5046691;28;20201;-82
2022/03/12 05:10:53;;;;;;;14.37;8.13;;;;;;;8.85;41.67;96381.25;5036874;28;20226;-82
2022/03/12 05:13:28;;;;;;;11.43;7.50;;;;;;;8.83;41.63;96391.44;5040584;28;20218;-83
2022/03/12 05:15:57;;;;;;;13.83;8.30;;;;;;;8.80;41.38;96365.78;5048710;28;20204;-82
2022/03/12 05:21:17;;;;;;;12.40;8.23;;;;;;;8.90;41.30;96384.97;5053159;28;20218;-82
2022/03/12 05:23:46;;;;;;;13.40;7.90;;;;;;;8.84;42.09;96372.38;5048524;28;20232;-82
2022/03/12 05:26:15;;;;;;;12.63;7.53;;;;;;;8.82;41.81;96374.47;5045858;28;20206;-82
2022/03/12 05:28:42;;;;;;;12.13;7.57;;;;;;;8.82;41.47;96374.47;5057694;28;20209;-82
2022/03/12 05:31:10;;;;;;;13.33;8.13;;;;;;;8.97;41.09;96369.56;5059962;28;20458;-81
2022/03/12 05:33:37;;;;;;;12.47;7.27;;;;;;;9.05;40.94;96379.25;5044034;28;20225;-82
2022/03/12 05:36:05;;;;;;;12.03;8.17;;;;;;;9.02;40.89;96374.28;5046821;28;20214;-82
2022/03/12 05:38:34;;;;;;;10.93;7.20;;;;;;;8.91;41.24;96373.16;5046106;28;20210;-82
2022/03/12 05:41:02;;;;;;;12.13;7.73;;;;;;;8.91;41.33;96389.31;5032197;28;20198;-82
2022/03/12 05:43:31;;;;;;;12.33;8.13;;;;;;;8.85;42.05;96384.78;5057436;28;20235;-83
2022/03/12 05:45:59;;;;;;;11.10;7.47;;;;;;;8.86;42.00;96375.66;5043259;28;20347;-82
2022/03/12 05:48:28;;;;;;;11.13;7.73;;;;;;;8.87;42.05;96395.31;5041063;28;20305;-84
2022/03/12 05:50:55;;;;;;;13.10;8.13;;;;;;;8.83;41.70;96369.91;5075057;28;20460;-81
2022/03/12 05:53:23;;;;;;;11.77;7.20;;;;;;;8.86;41.40;96369.44;5037010;28;20283;-82
2022/03/12 05:55:50;;;;;;;10.97;7.33;;;;;;;8.97;41.16;96363.34;5064963;28;20275;-84
2022/03/12 05:58:21;;;;;;;10.30;6.80;;;;;;;8.99;41.18;96390.91;5034263;28;20316;-83
2022/03/12 06:00:54;;;;;;;11.53;7.47;;;;;;;9.04;40.95;96391.06;5082257;28;20232;-82
2022/03/12 06:03:21;;;;;;;9.93;6.90;;;;;;;9.06;40.61;96392.50;5042908;28;20220;-83
2022/03/12 06:05:56;;;;;;;9.97;7.33;;;;;;;9.07;40.64;96388.75;5075069;28;20209;-82
2022/03/12 06:08:24;;;;;;;10.40;6.53;;;;;;;9.03;40.71;96392.91;5044091;28;20447;-82
2022/03/12 06:10:55;;;;;;;12.27;7.87;;;;;;;9.07;40.74;96388.75;5037380;28;20225;-81
2022/03/12 06:13:23;;;;;;;10.83;6.30;;;;;;;9.04;40.70;96388.34;5055242;28;20278;-82
2022/03/12 06:15:58;;;;;;;11.70;6.87;;;;;;;9.02;40.96;96396.66;5045859;28;20205;-81
2022/03/12 06:18:27;;;;;;;10.67;6.57;;;;;;;9.13;40.37;96380.81;5052180;28;20224;-82
2022/03/12 06:20:54;;;;;;;9.73;6.47;;;;;;;9.14;40.51;96393.25;5041875;28;20213;-82
2022/03/12 06:23:21;;;;;;;9.40;6.70;;;;;;;9.17;40.81;96376.66;5044122;28;20261;-80
2022/03/12 06:25:49;;;;;;;9.47;6.53;;;;;;;9.17;39.98;96401.75;5050966;28;20215;-83
2022/03/12 06:28:16;;;;;;;10.33;6.43;;;;;;;9.16;40.60;96386.63;5039229;28;20304;-81
2022/03/12 06:30:43;;;;;;;9.93;7.00;;;;;;;9.18;40.43;96403.38;5058937;28;20231;-83
2022/03/12 06:33:11;;;;;;;9.37;7.00;;;;;;;9.20;40.46;96403.16;5045810;28;20267;-82
2022/03/12 06:35:38;;;;;;;10.77;7.10;;;;;;;9.18;40.55;96405.25;5051445;28;20213;-82
2022/03/12 06:38:07;;;;;;;9.27;6.27;;;;;;;9.19;40.75;96404.19;5061196;28;20287;-82
2022/03/12 06:40:35;;;;;;;10.23;6.70;;;;;;;9.22;40.52;96401.06;5046400;28;20198;-82
2022/03/12 06:43:02;;;;;;;9.47;6.67;;;;;;;9.24;39.90;96394.41;5041486;28;20329;-83
2022/03/12 06:45:32;;;;;;;9.20;6.03;;;;;;;9.27;40.31;96403.94;5045975;28;20275;-81
2022/03/12 06:47:59;;;;;;;10.17;6.80;;;;;;;9.26;39.97;96402.28;5042500;28;20209;-81
2022/03/12 06:50:28;;;;;;;9.20;6.20;;;;;;;9.17;40.56;96399.03;5052573;28;20291;-82
2022/03/12 06:52:56;;;;;;;9.13;6.07;;;;;;;9.15;40.34;96405.69;5052978;28;20209;-82
2022/03/12 06:55:28;;;;;;;8.27;5.27;;;;;;;9.12;40.82;96423.09;5047109;28;20201;-82
2022/03/12 06:57:57;;;;;;;10.23;5.70;;;;;;;9.14;40.77;96422.88;5047697;28;20219;-80
2022/03/12 07:00:26;;;;;;;10.57;6.50;;;;;;;9.14;40.32;96402.16;5061471;28;20216;-82
2022/03/12 07:02:53;;;;;;;9.10;6.17;;;;;;;9.18;40.80;96419.56;5048264;28;20193;-82
2022/03/12 07:05:21;;;;;;;9.03;6.37;;;;;;;9.17;40.24;96425.97;5049633;28;20205;-84
2022/03/12 07:07:50;;;;;;;8.20;6.13;;;;;;;9.23;40.39;96418.88;5060006;28;20206;-82
2022/03/12 07:10:19;;;;;;;10.17;6.03;;;;;;;9.22;39.96;96415.34;5046538;28;20241;-83
2022/03/12 07:12:49;;;;;;;9.47;5.93;;;;;;;9.22;40.73;96428.00;5049136;28;20292;-82
2022/03/12 07:15:18;;;;;;;8.47;5.50;;;;;;;9.14;40.72;96412.94;5047854;28;20225;-82
2022/03/12 07:17:46;;;;;;;7.40;5.33;;;;;;;9.19;40.43;96425.75;5049390;28;20296;-83
2022/03/12 07:20:15;;;;;;;8.40;4.90;;;;;;;9.24;40.12;96426.75;5058579;28;20256;-81
2022/03/12 07:22:42;;;;;;;9.50;5.13;;;;;;;9.27;40.12;96437.06;5043657;28;20206;-82
2022/03/12 07:25:12;;;;;;;8.00;5.00;;;;;;;9.26;40.37;96418.44;5041768;28;20210;-82
2022/03/12 07:27:40;;;;;;;7.60;5.30;;;;;;;9.24;40.39;96415.16;5055934;28;20209;-81
2022/03/12 07:30:10;;;;;;;9.13;5.30;;;;;;;9.28;40.14;96416.34;5079660;28;20248;-82
2022/03/12 07:32:39;;;;;;;8.07;5.43;;;;;;;9.31;40.09;96405.97;5042071;28;20220;-81
2022/03/12 07:35:15;;;;;;;7.40;5.10;;;;;;;9.36;39.84;96416.88;5063797;28;20208;-79
2022/03/12 07:37:50;;;;;;;8.33;5.17;;;;;;;9.42;39.46;96417.91;5044485;28;20198;-76
2022/03/12 07:40:19;;;;;;;7.10;5.13;;;;;;;9.44;39.99;96410.41;5059239;28;20252;-77
2022/03/12 07:42:51;;;;;;;7.77;5.10;;;;;;;9.42;39.88;96405.25;5079875;28;20229;-79
2022/03/12 07:45:21;;;;;;;7.40;4.80;;;;;;;9.42;39.76;96407.94;5037387;28;20213;-82
2022/03/12 07:47:49;;;;;;;6.53;4.70;;;;;;;9.45;39.96;96420.94;5040420;28;20215;-81
2022/03/12 07:50:19;;;;;;;6.43;4.70;;;;;;;9.44;39.55;96413.13;5045598;28;20317;-81
2022/03/12 07:52:50;;;;;;;6.10;4.20;;;;;;;9.47;39.82;96420.75;5045949;28;20205;-82
2022/03/12 07:55:19;;;;;;;7.63;5.20;;;;;;;9.44;40.13;96413.13;5045138;28;20205;-83
2022/03/12 07:57:48;;;;;;;6.43;4.70;;;;;;;9.44;39.71;96410.41;5043968;28;20202;-84
2022/03/12 08:00:16;;;;;;;6.37;4.63;;;;;;;9.48;39.82;96417.00;5056022;28;20202;-82
2022/03/12 08:02:46;;;;;;;5.93;4.27;;;;;;;9.46;40.05;96419.91;5039294;28;20303;-82
2022/03/12 08:05:16;;;;;;;5.57;4.10;;;;;;;9.57;39.85;96415.66;5059548;28;20206;-82
2022/03/12 08:07:45;;;;;;;7.10;4.67;;;;;;;9.52;39.71;96403.91;5040356;28;20205;-82
2022/03/12 08:10:12;;;;;;;6.90;4.33;;;;;;;9.59;39.37;96412.75;5030333;28;20241;-81
2022/03/12 08:12:41;;;;;;;6.27;4.63;;;;;;;9.58;39.48;96403.03;5018999;28;20216;-82
2022/03/12 08:15:12;;;;;;;5.30;3.60;;;;;;;9.57;39.50;96409.44;5025078;28;20211;-82
2022/03/12 08:17:43;;;;;;;6.23;4.10;;;;;;;9.57;39.33;96393.28;5033944;28;20274;-81
2022/03/12 08:20:11;;;;;;;4.83;3.53;;;;;;;9.66;39.01;96397.34;5034689;28;20194;-82
2022/03/12 08:22:41;;;;;;;4.90;3.57;;;;;;;9.74;38.66;96389.78;5038358;28;20263;-84
2022/03/12 08:25:10;;;;;;;5.20;3.73;;;;;;;9.85;38.71;96402.53;5045704;28;20198;-82
2022/03/12 08:27:38;;;;;;;4.23;3.23;;;;;;;9.84;39.07;96394.66;5026547;28;20210;-81
2022/03/12 08:30:09;;;;;;;4.70;3.50;;;;;;;9.81;38.47;96390.53;5030574;28;20314;-81
2022/03/12 08:32:39;;;;;;;4.97;3.53;;;;;;;9.87;38.49;96400.41;5027129;28;20205;-82
2022/03/12 08:35:09;;;;;;;5.27;3.43;;;;;;;9.85;38.51;96401.69;5045252;28;20289;-82
2022/03/12 08:37:37;;;;;;;5.67;3.60;;;;;;;9.84;38.80;96384.69;5026153;28;20206;-82
2022/03/12 08:40:06;;;;;;;4.93;3.30;;;;;;;9.87;37.76;96361.81;5030176;28;20198;-80
2022/03/12 08:42:36;;;;;;;5.07;3.60;;;;;;;9.92;38.22;96380.03;5036362;28;20206;-82
2022/03/12 08:45:07;;;;;;;4.90;3.57;;;;;;;10.01;38.23;96373.31;5038704;28;20280;-83
2022/03/12 08:47:36;;;;;;;5.37;3.50;;;;;;;10.03;37.98;96366.63;5030713;28;20217;-82
2022/03/12 08:50:08;;;;;;;6.27;3.83;;;;;;;10.19;37.49;96359.81;5048374;28;20236;-83
2022/03/12 08:52:38;;;;;;;3.83;3.17;;;;;;;10.40;37.12;96364.72;5051167;28;20214;-82
2022/03/12 08:55:07;;;;;;;5.00;3.33;;;;;;;10.51;37.23;96363.94;5045700;28;20237;-82
2022/03/12 08:57:37;;;;;;;3.33;3.00;;;;;;;10.55;36.67;96358.91;5029861;28;20215;-82
2022/03/12 09:00:05;;;;;;;3.50;2.97;;;;;;;10.59;36.74;96366.31;5048089;28;20264;-85
2022/03/12 09:05:19;;;;;;;6.43;3.20;;;;;;;10.68;36.84;96363.28;5041750;28;20289;-82
2022/03/12 09:07:48;;;;;;;4.93;3.27;;;;;;;10.65;36.72;96371.84;5039893;28;20202;-83
2022/03/12 09:10:16;;;;;;;4.33;3.13;;;;;;;10.56;37.01;96345.16;5026939;28;20202;-83
2022/03/12 09:12:44;;;;;;;4.57;3.07;;;;;;;10.63;36.75;96343.19;5024013;28;20201;-83
2022/03/12 09:15:14;;;;;;;3.60;3.03;;;;;;;10.71;36.25;96349.34;5025772;28;20211;-83
2022/03/12 09:17:42;;;;;;;7.70;3.53;;;;;;;10.70;36.62;96337.72;5041024;28;20211;-83
2022/03/12 09:20:10;;;;;;;4.10;3.13;;;;;;;10.79;36.35;96349.84;5024120;28;20210;-82
2022/03/12 09:22:39;;;;;;;4.37;3.27;;;;;;;10.72;35.79;96343.69;5045078;28;20214;-81
2022/03/12 09:25:12;;;;;;;3.87;2.97;;;;;;;10.80;36.31;96347.97;5044097;28;20216;-83
2022/03/12 09:27:40;;;;;;;4.53;3.53;;;;;;;10.93;35.94;96339.63;5039896;28;20238;-81
2022/03/12 09:30:09;;;;;;;3.80;3.03;;;;;;;11.08;35.34;96336.47;5041237;28;20225;-80
2022/03/12 09:32:36;;;;;;;4.83;3.20;;;;;;;11.13;35.74;96337.44;5044355;28;20226;-81
2022/03/12 09:35:04;;;;;;;4.80;3.10;;;;;;;11.09;35.15;96354.34;5018346;28;20275;-81
2022/03/12 09:37:32;;;;;;;4.13;2.87;;;;;;;11.12;35.42;96343.88;5044027;28;20218;-82
2022/03/12 09:40:00;;;;;;;7.03;2.90;;;;;;;11.10;35.84;96308.16;5040730;28;20209;-82
2022/03/12 09:42:30;;;;;;;3.27;2.80;;;;;;;11.10;35.16;96329.78;5039599;28;20264;-83
2022/03/12 09:44:58;;;;;;;5.37;3.27;;;;;;;11.06;34.89;96328.59;5028347;28;20305;-83
2022/03/12 09:47:30;;;;;;;3.20;2.80;;;;;;;11.08;35.24;96320.25;5027648;28;20240;-81
2022/03/12 09:49:57;;;;;;;3.80;2.73;;;;;;;11.09;34.75;96335.41;5043209;28;20208;-81
2022/03/12 09:52:24;;;;;;;4.53;3.47;;;;;;;11.18;34.76;96325.91;5024587;28;20328;-81
2022/03/12 09:54:51;;;;;;;4.93;3.17;;;;;;;11.17;35.07;96313.44;5046662;28;20206;-81
2022/03/12 09:57:27;;;;;;;4.17;3.17;;;;;;;11.33;34.77;96316.25;5041218;28;20198;-81
2022/03/12 09:59:56;;;;;;;3.87;2.90;;;;;;;11.40;34.84;96312.66;5032272;28;20213;-81
2022/03/12 10:02:23;;;;;;;3.77;2.90;;;;;;;11.51;34.43;96330.72;5020100;28;20202;-80
2022/03/12 10:04:50;;;;;;;5.63;3.20;;;;;;;11.54;33.99;96305.91;5026722;28;20198;-81
2022/03/12 10:07:18;;;;;;;4.07;3.13;;;;;;;11.64;34.06;96315.09;5025573;28;20206;-81
2022/03/12 10:09:45;;;;;;;3.83;2.90;;;;;;;11.63;33.98;96308.03;5038598;28;20212;-81
2022/03/12 10:12:12;;;;;;;6.33;3.20;;;;;;;11.64;34.35;96308.84;5036289;28;20214;-81
2022/03/12 10:14:41;;;;;;;4.23;3.07;;;;;;;11.83;33.76;96302.22;5027848;28;20302;-81
2022/03/12 10:17:09;;;;;;;4.83;2.93;;;;;;;11.73;33.90;96318.25;5043127;28;20431;-80
2022/03/12 10:19:36;;;;;;;4.30;3.10;;;;;;;11.88;34.37;96305.06;5025014;28;20221;-84
2022/03/12 10:22:04;;;;;;;3.73;3.17;;;;;;;11.88;33.67;96315.06;5026856;28;20276;-83
2022/03/12 10:24:31;;;;;;;5.30;3.27;;;;;;;11.99;33.09;96308.81;5024969;28;20325;-83
2022/03/12 10:26:58;;;;;;;4.80;2.87;;;;;;;12.09;33.19;96315.22;5041428;28;20216;-83
2022/03/12 10:29:26;;;;;;;5.13;3.40;;;;;;;12.07;33.11;96305.72;5040115;28;20293;-83
2022/03/12 10:31:56;;;;;;;4.13;3.10;;;;;;;12.19;32.93;96294.81;5028645;28;20312;-83
2022/03/12 10:34:24;;;;;;;3.97;3.20;;;;;;;12.20;33.08;96307.31;5041955;28;20209;-85
2022/03/12 10:36:54;;;;;;;4.27;3.40;;;;;;;12.29;32.82;96285.03;5041296;28;20240;-83
2022/03/12 10:39:32;;;;;;;4.50;3.20;;;;;;;12.13;32.75;96305.56;5044171;28;20206;-83
2022/03/12 10:42:05;;;;;;;4.10;2.93;;;;;;;12.09;32.68;96288.16;5030797;28;20279;-79
2022/03/12 10:44:37;;;;;;;4.37;3.23;;;;;;;12.21;32.88;96287.28;5021022;28;20226;-80
2022/03/12 10:47:16;;;;;;;4.30;3.47;;;;;;;12.33;32.57;96291.59;5023952;28;20199;-79
2022/03/12 10:49:57;;;;;;;4.97;3.10;;;;;;;12.47;32.32;96289.41;5030027;28;20303;-79
2022/03/12 10:52:31;;;;;;;4.17;2.97;;;;;;;12.53;31.78;96304.69;5019829;28;20238;-78
2022/03/12 10:54:59;;;;;;;5.37;3.73;;;;;;;12.49;32.21;96290.00;5025101;28;20226;-79
2022/03/12 10:57:28;;;;;;;5.60;3.63;;;;;;;12.42;32.35;96287.41;5036424;28;20274;-79
2022/03/12 10:59:56;;;;;;;4.70;3.33;;;;;;;12.50;32.14;96269.97;5032243;28;20218;-79
2022/03/12 11:02:25;;;;;;;5.40;3.60;;;;;;;12.45;31.99;96278.00;5023149;28;20294;-79
2022/03/12 11:04:52;;;;;;;5.70;3.97;;;;;;;12.54;32.12;96278.41;5022019;28;20203;-79
2022/03/12 11:07:24;;;;;;;4.40;3.13;;;;;;;12.78;31.04;96278.03;5025806;28;20312;-80
2022/03/12 11:09:53;;;;;;;5.70;3.27;;;;;;;12.69;31.89;96276.78;5040792;28;20214;-79
2022/03/12 11:12:35;;;;;;;5.73;3.70;;;;;;;12.82;31.42;96292.75;5023623;28;20223;-79
2022/03/12 11:15:07;;;;;;;4.30;3.50;;;;;;;12.71;31.47;96265.72;5026925;28;20199;-79
2022/03/12 11:17:43;;;;;;;5.93;4.00;;;;;;;12.56;31.63;96284.41;5024995;28;20211;-79
2022/03/12 11:20:17;;;;;;;5.33;3.60;;;;;;;12.67;31.14;96286.25;5024192;28;20289;-78
2022/03/12 11:22:47;;;;;;;6.50;3.23;;;;;;;12.64;31.44;96286.72;5030809;28;20226;-80
2022/03/12 11:25:20;;;;;;;4.50;3.30;;;;;;;12.55;31.47;96278.19;5041874;28;20545;-79
2022/03/12 11:27:50;;;;;;;4.23;3.67;;;;;;;12.45;31.70;96280.69;5024376;28;20298;-79
2022/03/12 11:30:21;;;;;;;4.57;3.43;;;;;;;12.52;31.51;96273.25;5026833;28;20226;-78
2022/03/12 11:33:04;;;;;;;4.47;3.33;;;;;;;12.46;31.51;96263.38;5028511;28;20304;-79
2022/03/12 11:35:40;;;;;;;5.27;3.73;;;;;;;12.36;31.58;96260.50;5044619;28;20263;-79
2022/03/12 11:38:17;;;;;;;4.40;3.13;;;;;;;12.44;31.55;96270.94;5024363;28;20207;-79
2022/03/12 11:40:49;;;;;;;4.30;3.50;;;;;;;12.41;31.13;96239.75;5025948;28;20319;-78
2022/03/12 11:43:30;;;;;;;6.30;3.80;;;;;;;12.40;31.58;96191.25;5017792;28;20246;-81
2022/03/12 11:46:26;;;;;;;5.87;3.30;;;;;;;12.35;31.44;96266.97;5025203;28;20282;-78